Observations for MILANO LINATE, Italy (LIML)

LIML 201950Z VRB01KT 7000 NSC 07/04 Q1025 NOSIG 
LIML 201920Z 14003KT 110V180 8000 NSC 09/05 Q1025 NOSIG 
LIML 201850Z 14004KT 110V170 8000 NSC 09/05 Q1024 NOSIG 
LIML 201820Z 15004KT 8000 NSC 10/06 Q1024 NOSIG 
LIML 201750Z 15004KT CAVOK 10/06 Q1024 NOSIG
LIML 201720Z 16004KT CAVOK 11/05 Q1023 NOSIG
LIML 201650Z 22002KT CAVOK 12/05 Q1023 NOSIG
LIML 201620Z 22003KT CAVOK 13/05 Q1023 NOSIG
LIML 201550Z VRB02KT CAVOK 13/05 Q1023 NOSIG
LIML 201520Z 22003KT 180V280 CAVOK 13/05 Q1023 NOSIG
LIML 201450Z 23003KT 190V280 CAVOK 13/06 Q1023 NOSIG
LIML 201420Z 25004KT 140V310 8000 NSC 13/05 Q1023 NOSIG 
LIML 201350Z VRB04KT 8000 NSC 12/05 Q1024 NOSIG 
LIML 201320Z 15003KT 080V250 6000 NSC 11/05 Q1024 NOSIG 
LIML 201250Z VRB02KT 5000 BR NSC 10/05 Q1024 NOSIG  
LIML 201220Z 11003KT 360V160 5000 BR NSC 09/05 Q1025 NOSIG  
LIML 201150Z 11003KT 070V160 3000 BR NSC 08/05 Q1025 NOSIG  
LIML 201120Z 10003KT 050V170 1600 BR NSC 06/05 Q1025 NOSIG  
LIML 201050Z 07004KT 020V110 0900 R36/1400N FG SCT005 05/05 Q1025 BECMG 1600 BR 
LIML 201020Z 11003KT 010V180 0800 R36/1100U FG SCT002 05/05 Q1025 BECMG 1600 BR 
LIML 200950Z 12003KT 050V160 0100 R36/0450U FG VV/// 04/04 Q1025 BECMG 0800 FG  
LIML 200920Z VRB02KT 0050 R36/0200V0300N FG VV/// 03/03 Q1025 NOSIG 
LIML 200850Z 07003KT 040V100 0050 R36/0250N FG VV/// 03/03 Q1025 NOSIG  
LIML 200820Z 10003KT 070V130 0050 R36/0175N FG VV/// 03/03 Q1025 NOSIG  
LIML 200750Z 06003KT 020V110 0050 R36/0175N FG VV/// 03/03 Q1025 NOSIG  
LIML 200720Z VRB02KT 0050 R36/0175N FG VV/// 03/03 Q1024 NOSIG  
LIML 200650Z 07003KT 0050 R36/0175N FG VV/// 03/03 Q1024 NOSIG  
LIML 200620Z 06003KT 030V100 0050 R36/0250N FG VV/// 03/03 Q1023 NOSIG  
LIML 200550Z 10004KT 060V120 0100 R36/0300N FG VV/// 03/03 Q1023 NOSIG  
LIML 200520Z 08004KT 0400 R36/0400D FG VV/// 03/03 Q1023 NOSIG  
LIML 200450Z 05003KT CAVOK 03/03 Q1023 NOSIG
LIML 200420Z 10003KT 070V150 CAVOK 03/02 Q1023 NOSIG
LIML 200350Z VRB02KT CAVOK 03/03 Q1023 NOSIG
LIML 200320Z 15002KT CAVOK 04/03 Q1023 NOSIG
LIML 200250Z 15003KT CAVOK 03/02 Q1023 NOSIG
LIML 200150Z VRB02KT CAVOK 04/02 Q1023 NOSIG
LIML 200120Z 35002KT CAVOK 04/02 Q1023 NOSIG
LIML 200050Z 02002KT CAVOK 06/03 Q1023 NOSIG
LIML 200020Z 35002KT CAVOK 05/03 Q1023 NOSIG
LIML 192350Z 36003KT CAVOK 06/04 Q1023 NOSIG
LIML 192320Z 31004KT CAVOK 08/03 Q1023 NOSIG
LIML 192250Z 29004KT CAVOK 09/03 Q1023 NOSIG
LIML 192220Z 29005KT CAVOK 09/03 Q1023 NOSIG
LIML 192150Z 29004KT CAVOK 08/03 Q1022 NOSIG
LIML 192120Z 27004KT CAVOK 08/03 Q1022 NOSIG
LIML 192050Z 27004KT CAVOK 08/03 Q1022 NOSIG
LIML 192020Z 27004KT CAVOK 08/03 Q1022 NOSIG
LIML 191950Z 26004KT CAVOK 09/04 Q1022 NOSIG
LIML 191920Z 25004KT CAVOK 10/04 Q1022 NOSIG